Time;durP1;ratioP1;P1;durP2;ratioP2;P2;SDS_P1;SDS_P2;PMS_P1;PMS_P2;Temp;Humidity;BMP_temperature;BMP_pressure;BME280_temperature;BME280_humidity;BME280_pressure;Samples;Min_cycle;Max_cycle;Signal;HPM_P1;HPM_P2
2022/11/27 00:01:17;;;;;;;3.53;2.40;;;;;;;2.62;72.18;102886.03;4975532;28;20066;-75
2022/11/27 00:03:45;;;;;;;3.22;2.05;;;;;;;2.64;72.61;102880.91;4981140;28;20180;-75
2022/11/27 00:06:14;;;;;;;4.20;2.10;;;;;;;2.62;72.36;102877.41;4974754;28;20488;-75
2022/11/27 00:08:41;;;;;;;3.55;1.73;;;;;;;2.68;72.94;102885.44;4983121;28;20047;-75
2022/11/27 00:11:09;;;;;;;3.83;2.17;;;;;;;2.68;72.45;102880.28;4980030;28;20447;-75
2022/11/27 00:13:37;;;;;;;4.45;2.13;;;;;;;2.63;73.03;102874.88;4974671;28;20077;-75
2022/11/27 00:16:04;;;;;;;2.85;1.98;;;;;;;2.64;73.01;102878.34;4979395;28;20671;-75
2022/11/27 00:18:32;;;;;;;3.28;2.22;;;;;;;2.64;72.99;102878.34;4979377;28;20168;-75
2022/11/27 00:21:04;;;;;;;2.38;1.92;;;;;;;2.55;73.29;102859.84;4984118;28;20050;-75
2022/11/27 00:23:32;;;;;;;3.17;1.92;;;;;;;2.67;73.31;102876.78;4981619;28;20896;-75
2022/11/27 00:25:59;;;;;;;4.20;1.92;;;;;;;2.68;72.59;102880.28;4982899;28;20054;-75
2022/11/27 00:28:25;;;;;;;3.92;2.20;;;;;;;2.67;72.74;102871.63;4976413;28;20047;-75
2022/11/27 00:30:52;;;;;;;4.18;2.15;;;;;;;2.66;72.54;102876.72;4980644;28;20124;-75
2022/11/27 00:33:19;;;;;;;4.53;2.80;;;;;;;2.68;73.39;102872.53;4976135;28;20047;-75
2022/11/27 00:35:46;;;;;;;5.95;2.78;;;;;;;2.68;72.84;102872.53;4978044;28;20204;-75
2022/11/27 00:38:14;;;;;;;4.20;1.70;;;;;;;2.68;73.18;102865.66;4979880;28;20043;-75
2022/11/27 00:40:40;;;;;;;4.00;2.47;;;;;;;2.68;72.93;102864.78;4977129;28;20441;-75
2022/11/27 00:43:07;;;;;;;3.75;2.38;;;;;;;2.68;73.47;102872.53;4974507;28;20039;-75
2022/11/27 00:45:34;;;;;;;3.47;2.03;;;;;;;2.66;72.93;102863.81;4974958;28;20047;-75
2022/11/27 00:48:01;;;;;;;3.92;1.73;;;;;;;2.69;73.49;102870.00;4977703;28;20042;-75
2022/11/27 00:50:30;;;;;;;3.00;1.98;;;;;;;2.64;73.45;102855.13;4978796;28;20053;-75
2022/11/27 00:52:57;;;;;;;3.65;1.75;;;;;;;2.69;72.85;102861.38;4977274;28;20053;-75
2022/11/27 00:55:25;;;;;;;4.03;2.10;;;;;;;2.64;72.98;102857.69;4982239;28;20100;-75
2022/11/27 00:57:52;;;;;;;2.42;1.42;;;;;;;2.69;73.36;102869.13;4977190;28;20109;-74
2022/11/27 01:00:19;;;;;;;2.53;1.80;;;;;;;2.68;73.40;102864.78;4986479;28;20081;-75
2022/11/27 01:02:46;;;;;;;3.42;2.00;;;;;;;2.68;73.74;102860.50;4975386;28;20081;-75
2022/11/27 01:05:13;;;;;;;3.78;1.80;;;;;;;2.69;73.32;102864.84;4979096;28;20089;-75
2022/11/27 01:07:40;;;;;;;2.80;1.55;;;;;;;2.70;73.23;102865.72;4979374;28;20050;-75
2022/11/27 01:10:08;;;;;;;3.50;1.40;;;;;;;2.71;73.18;102867.53;4981931;28;20464;-75
2022/11/27 01:12:36;;;;;;;1.90;1.70;;;;;;;2.71;73.08;102867.53;4976308;28;20062;-75
2022/11/27 01:15:04;;;;;;;1.95;1.52;;;;;;;2.71;73.32;102862.34;4974911;28;20100;-74
2022/11/27 01:17:30;;;;;;;2.90;1.60;;;;;;;2.71;73.09;102867.53;4976188;28;20053;-75
2022/11/27 01:19:57;;;;;;;2.08;1.80;;;;;;;2.72;73.16;102864.13;4976210;28;20055;-75
2022/11/27 01:22:24;;;;;;;2.30;1.08;;;;;;;2.73;73.59;102865.88;4975498;28;20389;-74
2022/11/27 01:24:51;;;;;;;2.97;1.60;;;;;;;2.73;73.16;102865.88;4975450;28;20453;-75
2022/11/27 01:27:17;;;;;;;1.75;1.13;;;;;;;2.73;73.32;102858.13;4976927;28;20056;-75
2022/11/27 01:29:46;;;;;;;2.15;1.40;;;;;;;2.75;73.54;102861.66;4974117;28;20770;-75
2022/11/27 01:32:13;;;;;;;3.85;1.80;;;;;;;2.75;73.89;102864.25;4976969;28;20042;-76
2022/11/27 01:34:40;;;;;;;2.95;1.52;;;;;;;2.77;73.55;102869.50;4979528;28;20046;-75
2022/11/27 01:37:07;;;;;;;3.60;1.55;;;;;;;2.77;73.82;102867.81;4975027;28;20172;-75
2022/11/27 01:39:34;;;;;;;2.10;1.38;;;;;;;2.77;73.92;102870.38;4977204;28;20190;-75
2022/11/27 01:42:00;;;;;;;2.05;1.42;;;;;;;2.78;73.34;102868.69;4980787;28;20488;-75
2022/11/27 01:44:49;;;;;;;4.53;2.30;;;;;;;2.76;73.46;102865.13;4975535;28;20054;-75
2022/11/27 01:47:24;;;;;;;2.40;1.13;;;;;;;2.79;73.66;102870.44;4978130;28;20065;-75
2022/11/27 01:49:53;;;;;;;3.13;1.90;;;;;;;2.78;73.54;102869.56;4976961;28;20054;-75
2022/11/27 01:52:23;;;;;;;3.05;1.45;;;;;;;2.75;73.53;102853.94;4973705;28;20453;-75
2022/11/27 01:54:55;;;;;;;3.55;1.40;;;;;;;2.81;73.51;102856.78;4977183;28;20055;-75
2022/11/27 01:57:25;;;;;;;3.50;1.63;;;;;;;2.81;74.06;102858.50;4976501;28;20867;-75
2022/11/27 01:59:56;;;;;;;6.32;1.50;;;;;;;2.82;73.61;102860.28;4977305;28;20069;-75
2022/11/27 02:02:23;;;;;;;1.98;1.42;;;;;;;2.81;73.51;102858.50;4979777;28;20062;-75
2022/11/27 02:04:50;;;;;;;2.33;1.85;;;;;;;2.84;74.21;102863.81;4977343;28;20406;-76
2022/11/27 02:07:17;;;;;;;2.97;1.40;;;;;;;2.84;73.85;102862.09;4977531;28;20042;-75
2022/11/27 02:09:44;;;;;;;3.38;1.67;;;;;;;2.81;73.41;102854.22;4979587;28;20050;-75
2022/11/27 02:12:16;;;;;;;3.92;1.20;;;;;;;2.83;73.63;102862.91;4934881;28;1173189;-75
2022/11/27 02:14:49;;;;;;;3.88;1.90;;;;;;;2.84;73.97;102858.63;4973282;28;20085;-75
2022/11/27 02:17:23;;;;;;;2.45;1.40;;;;;;;2.84;73.95;102859.50;4974359;28;20113;-75
2022/11/27 02:20:10;;;;;;;2.13;1.20;;;;;;;2.86;74.15;102864.75;4981759;28;20112;-75
2022/11/27 02:22:51;;;;;;;2.65;1.17;;;;;;;2.85;73.46;102857.84;4976832;28;20055;-75
2022/11/27 02:25:30;;;;;;;2.05;1.48;;;;;;;2.85;74.22;102861.31;4980342;28;20401;-75
2022/11/27 02:28:11;;;;;;;2.47;1.38;;;;;;;2.82;73.61;102858.59;4975808;28;20047;-75
2022/11/27 02:30:46;;;;;;;2.28;1.05;;;;;;;2.86;73.99;102864.75;4976111;28;20088;-75
2022/11/27 02:33:20;;;;;;;2.45;1.40;;;;;;;2.84;73.76;102861.22;4978354;28;20050;-75
2022/11/27 02:35:51;;;;;;;2.17;1.30;;;;;;;2.84;74.34;102856.94;4980542;28;20055;-75
2022/11/27 02:38:22;;;;;;;2.63;1.02;;;;;;;2.79;74.03;102849.78;4979953;28;20109;-75
2022/11/27 02:40:54;;;;;;;3.55;2.10;;;;;;;2.86;74.22;102870.81;4981140;28;20469;-75
2022/11/27 02:43:25;;;;;;;4.10;1.45;;;;;;;2.90;73.82;102869.25;4979113;28;20570;-75
2022/11/27 02:45:53;;;;;;;3.28;1.77;;;;;;;2.90;73.79;102880.47;4980378;28;20050;-75
2022/11/27 02:48:24;;;;;;;2.33;1.23;;;;;;;2.91;74.33;102871.91;4977389;28;20058;-75
2022/11/27 02:50:53;;;;;;;2.50;1.40;;;;;;;2.87;74.29;102872.56;4982322;28;20606;-75
2022/11/27 02:53:26;;;;;;;2.38;1.88;;;;;;;2.91;73.78;102876.19;4983683;28;20047;-75
2022/11/27 02:55:54;;;;;;;3.38;1.25;;;;;;;2.90;73.85;102880.47;4980898;28;20093;-75
2022/11/27 02:58:25;;;;;;;1.95;1.27;;;;;;;2.92;74.07;102878.84;4980308;28;20054;-75
2022/11/27 03:00:54;;;;;;;2.90;1.38;;;;;;;2.93;73.89;102877.13;4980308;28;20061;-75
2022/11/27 03:03:26;;;;;;;2.30;1.10;;;;;;;2.91;73.80;102866.75;4984123;28;20058;-75
2022/11/27 03:06:01;;;;;;;2.50;1.90;;;;;;;2.95;74.27;102877.22;4980503;28;20058;-75
2022/11/27 03:08:32;;;;;;;2.08;1.17;;;;;;;2.81;74.31;102856.78;4978384;28;20105;-75
2022/11/27 03:11:03;;;;;;;4.18;1.63;;;;;;;2.95;73.64;102877.22;4983844;28;20054;-75
2022/11/27 03:13:36;;;;;;;2.55;1.15;;;;;;;2.93;73.95;102872.88;4982567;28;20463;-75
2022/11/27 03:16:11;;;;;;;2.17;1.10;;;;;;;2.90;74.13;102875.31;4977034;28;20089;-75
2022/11/27 03:18:43;;;;;;;0.98;0.88;;;;;;;2.95;74.20;102882.38;4977288;28;20605;-75
2022/11/27 03:21:21;;;;;;;2.20;1.00;;;;;;;2.97;74.11;102880.75;4981166;28;20240;-75
2022/11/27 03:23:48;;;;;;;2.30;1.20;;;;;;;2.97;74.45;102885.91;4983930;28;20047;-75
2022/11/27 03:26:15;;;;;;;2.72;1.38;;;;;;;2.97;74.22;102879.06;4981016;28;20492;-75
2022/11/27 03:28:44;;;;;;;3.97;1.70;;;;;;;2.91;74.09;102873.63;4986521;28;20881;-75
2022/11/27 03:31:12;;;;;;;1.70;1.17;;;;;;;2.98;74.26;102883.41;4977734;28;20058;-74
2022/11/27 03:33:40;;;;;;;4.70;1.60;;;;;;;2.99;73.75;102889.44;4982174;28;20047;-75
2022/11/27 03:36:16;;;;;;;3.30;1.52;;;;;;;3.00;73.69;102886.06;4978255;28;20102;-75
2022/11/27 03:38:44;;;;;;;2.58;1.50;;;;;;;2.88;74.40;102866.59;4976972;28;20050;-75
2022/11/27 03:41:21;;;;;;;2.85;1.60;;;;;;;3.01;74.41;102883.53;4983035;28;20477;-75
2022/11/27 03:43:59;;;;;;;3.20;1.95;;;;;;;3.01;74.00;102883.53;4984085;28;20105;-75
2022/11/27 03:46:38;;;;;;;1.98;1.25;;;;;;;3.02;74.38;102881.88;4978443;28;20107;-75
2022/11/27 03:49:13;;;;;;;2.05;1.42;;;;;;;3.02;73.84;102882.75;4982366;28;20050;-75
2022/11/27 03:51:45;;;;;;;1.70;1.23;;;;;;;3.03;73.93;102894.81;4982842;28;20464;-75
2022/11/27 03:54:22;;;;;;;2.13;1.38;;;;;;;3.03;73.99;102883.63;4976793;28;20054;-75
2022/11/27 03:56:57;;;;;;;1.95;1.05;;;;;;;3.05;73.97;102882.88;4981687;28;20046;-75
2022/11/27 03:59:29;;;;;;;2.42;1.15;;;;;;;3.05;74.09;102882.00;4980902;28;20411;-74
2022/11/27 04:01:57;;;;;;;1.77;1.35;;;;;;;3.05;73.99;102876.84;4974745;28;20100;-73
2022/11/27 04:04:24;;;;;;;1.30;0.93;;;;;;;3.06;73.68;102879.47;4977883;28;20050;-74
2022/11/27 04:06:51;;;;;;;1.92;1.00;;;;;;;3.05;73.41;102874.25;4981020;28;20085;-73
2022/11/27 04:09:18;;;;;;;2.90;1.10;;;;;;;3.06;73.68;102879.47;4981248;28;20054;-73
2022/11/27 04:11:45;;;;;;;4.00;1.00;;;;;;;3.07;74.27;102877.78;4978622;28;20050;-74
2022/11/27 04:14:11;;;;;;;2.13;1.45;;;;;;;3.07;74.21;102875.19;4979852;28;20096;-73
2022/11/27 04:16:38;;;;;;;1.60;0.95;;;;;;;3.06;73.69;102886.34;4981773;28;20474;-74
2022/11/27 04:19:07;;;;;;;3.97;1.58;;;;;;;3.08;73.86;102879.56;4979260;28;20050;-73
2022/11/27 04:21:33;;;;;;;2.35;0.82;;;;;;;3.08;74.05;102889.88;4977617;28;20039;-74
2022/11/27 04:24:00;;;;;;;2.10;0.93;;;;;;;3.08;73.55;102880.44;4978878;28;20121;-73
2022/11/27 04:26:27;;;;;;;1.58;1.08;;;;;;;3.09;73.60;102881.31;4979265;28;20046;-74
2022/11/27 04:28:53;;;;;;;1.65;1.15;;;;;;;3.08;73.54;102874.41;4978794;28;20050;-73
2022/11/27 04:31:20;;;;;;;1.90;0.95;;;;;;;3.07;73.33;102878.66;4976323;28;20625;-73
2022/11/27 04:33:47;;;;;;;1.95;0.90;;;;;;;3.07;73.48;102883.81;4977548;28;20047;-73
2022/11/27 04:36:15;;;;;;;3.03;1.05;;;;;;;3.07;73.46;102882.94;4978458;28;20101;-74
2022/11/27 04:38:42;;;;;;;2.08;1.10;;;;;;;3.07;74.12;102880.34;4977279;28;20050;-73
2022/11/27 04:41:08;;;;;;;2.25;1.02;;;;;;;3.06;73.81;102881.19;4979391;28;20112;-74
2022/11/27 04:43:35;;;;;;;1.98;1.10;;;;;;;3.07;73.41;102882.94;4980367;28;20563;-73
2022/11/27 04:46:02;;;;;;;3.33;1.25;;;;;;;3.05;73.46;102880.31;4980260;28;20087;-73
2022/11/27 04:48:28;;;;;;;3.15;0.80;;;;;;;3.06;73.95;102878.59;4973241;28;20051;-73
2022/11/27 04:50:55;;;;;;;2.00;1.13;;;;;;;3.05;73.43;102874.25;4979439;28;20055;-73
2022/11/27 04:53:23;;;;;;;2.10;1.42;;;;;;;3.06;74.03;102870.84;4973521;28;20038;-73
2022/11/27 04:55:51;;;;;;;3.05;0.95;;;;;;;3.06;74.00;102870.84;4979156;28;20058;-73
2022/11/27 04:58:17;;;;;;;1.80;1.10;;;;;;;3.06;73.93;102873.44;4977437;28;20046;-73
2022/11/27 05:00:44;;;;;;;2.60;1.23;;;;;;;3.07;73.60;102876.06;4975625;28;20513;-73
2022/11/27 05:03:11;;;;;;;1.48;1.00;;;;;;;3.02;73.48;102856.91;4982487;28;20136;-73
2022/11/27 05:05:38;;;;;;;2.78;1.40;;;;;;;3.07;73.92;102863.16;4980549;28;20572;-74
2022/11/27 05:08:05;;;;;;;2.25;1.10;;;;;;;3.06;73.75;102858.81;4978662;28;20066;-73
2022/11/27 05:10:33;;;;;;;1.10;0.85;;;;;;;3.07;73.98;102852.81;4976488;28;20456;-74
2022/11/27 05:13:00;;;;;;;1.70;1.20;;;;;;;3.08;73.95;102858.91;4976162;28;20111;-74
2022/11/27 05:15:26;;;;;;;2.30;1.05;;;;;;;3.09;73.79;102858.06;4975865;28;20117;-73
2022/11/27 05:17:53;;;;;;;1.65;1.38;;;;;;;3.09;73.72;102855.50;4977198;28;20046;-73
2022/11/27 05:20:20;;;;;;;3.08;0.95;;;;;;;3.09;73.22;102858.06;4978116;28;20046;-73
2022/11/27 05:22:48;;;;;;;2.55;1.23;;;;;;;3.08;73.45;102853.75;4977049;28;20054;-73
2022/11/27 05:25:15;;;;;;;2.03;1.00;;;;;;;3.08;73.42;102849.44;4977756;28;20050;-73
2022/11/27 05:27:43;;;;;;;1.90;1.10;;;;;;;3.09;73.30;102845.16;4976452;28;20389;-74
2022/11/27 05:30:10;;;;;;;2.33;1.10;;;;;;;3.08;73.78;102846.88;4978526;28;20043;-73
2022/11/27 05:32:37;;;;;;;3.35;1.67;;;;;;;3.09;73.43;102842.59;4981234;28;20034;-73
2022/11/27 05:35:05;;;;;;;2.22;1.45;;;;;;;3.07;73.25;102844.19;4977371;28;20420;-74
2022/11/27 05:37:31;;;;;;;3.03;1.50;;;;;;;3.09;73.82;102845.16;4975746;28;20050;-73
2022/11/27 05:39:58;;;;;;;3.30;1.20;;;;;;;3.09;73.93;102847.75;4977991;28;20058;-74
2022/11/27 05:42:25;;;;;;;1.50;1.08;;;;;;;2.97;74.14;102829.13;4976656;28;20101;-74
2022/11/27 05:44:53;;;;;;;1.52;1.00;;;;;;;3.08;73.34;102844.28;4972773;28;20050;-73
2022/11/27 05:47:19;;;;;;;1.40;1.10;;;;;;;2.95;73.54;102831.63;4975247;28;20047;-73
2022/11/27 05:49:46;;;;;;;1.48;1.10;;;;;;;3.08;73.78;102849.44;4977804;28;20047;-73
2022/11/27 05:52:13;;;;;;;1.60;0.95;;;;;;;3.08;73.81;102846.88;4974342;28;20061;-73
2022/11/27 05:54:40;;;;;;;1.60;0.93;;;;;;;3.08;73.17;102848.56;4976465;28;20520;-74
2022/11/27 05:57:06;;;;;;;3.47;1.10;;;;;;;2.98;73.22;102836.03;4976875;28;20051;-77
2022/11/27 05:59:33;;;;;;;2.17;1.35;;;;;;;3.07;73.29;102849.38;4975762;28;20055;-74
2022/11/27 06:02:01;;;;;;;1.95;1.20;;;;;;;3.07;74.06;102846.78;4979504;28;20552;-73
2022/11/27 06:04:28;;;;;;;4.00;1.80;;;;;;;3.06;73.20;102847.59;4975341;28;20042;-73
2022/11/27 06:06:55;;;;;;;3.33;1.55;;;;;;;3.06;74.02;102861.41;4977253;28;20481;-73
2022/11/27 06:09:21;;;;;;;2.85;1.10;;;;;;;3.05;73.53;102862.22;4973760;28;20118;-74
2022/11/27 06:11:48;;;;;;;1.90;1.20;;;;;;;3.04;73.78;102865.59;4979973;28;20900;-73
2022/11/27 06:14:15;;;;;;;1.55;1.00;;;;;;;3.05;74.06;102861.34;4975523;28;20109;-73
2022/11/27 06:16:42;;;;;;;3.47;1.10;;;;;;;3.03;73.48;102850.94;4970586;28;20511;-73
2022/11/27 06:19:10;;;;;;;1.83;1.15;;;;;;;3.05;73.82;102854.47;4972551;28;20516;-73
2022/11/27 06:21:36;;;;;;;1.90;0.85;;;;;;;3.05;73.68;102849.31;4973263;28;20402;-74
2022/11/27 06:24:03;;;;;;;2.17;1.20;;;;;;;3.06;73.47;102850.19;4976508;28;20058;-73
2022/11/27 06:26:32;;;;;;;1.48;0.90;;;;;;;3.05;73.76;102840.69;4982332;28;20043;-74
2022/11/27 06:29:00;;;;;;;2.28;1.30;;;;;;;2.99;73.77;102832.63;4985080;28;20055;-74
2022/11/27 06:31:29;;;;;;;5.05;1.15;;;;;;;3.06;73.39;102845.03;4980963;28;20042;-73
2022/11/27 06:33:57;;;;;;;2.95;1.20;;;;;;;3.05;73.74;102843.28;4985638;28;20054;-73
2022/11/27 06:36:28;;;;;;;2.47;1.58;;;;;;;3.06;73.73;102837.28;4982045;28;20102;-74
2022/11/27 06:38:55;;;;;;;1.73;1.30;;;;;;;3.05;73.80;102833.81;4981883;28;20097;-73
2022/11/27 06:41:25;;;;;;;2.50;1.30;;;;;;;3.06;73.38;102835.59;4981328;28;20162;-74
2022/11/27 06:43:51;;;;;;;2.67;1.23;;;;;;;3.06;73.72;102839.88;4981047;28;20329;-73
2022/11/27 06:46:20;;;;;;;1.83;1.27;;;;;;;3.07;73.82;102841.63;4976655;28;20142;-73
2022/11/27 06:48:48;;;;;;;4.40;1.10;;;;;;;3.08;73.49;102843.41;4981770;28;20108;-74
2022/11/27 06:51:17;;;;;;;2.47;1.70;;;;;;;3.08;73.26;102843.41;4978365;28;20524;-73
2022/11/27 06:53:46;;;;;;;2.60;1.38;;;;;;;3.08;73.33;102846.88;4977933;28;20054;-73
2022/11/27 06:56:15;;;;;;;1.92;1.27;;;;;;;3.09;73.75;102858.06;4975501;28;20051;-74
2022/11/27 06:58:43;;;;;;;2.10;1.17;;;;;;;3.08;73.32;102848.56;4979977;28;20050;-73
2022/11/27 07:01:12;;;;;;;1.20;1.08;;;;;;;3.08;73.69;102853.75;4977914;28;20053;-73
2022/11/27 07:03:39;;;;;;;2.65;1.60;;;;;;;3.07;73.52;102852.81;4980402;28;20086;-73
2022/11/27 07:06:08;;;;;;;3.42;1.48;;;;;;;3.07;73.26;102846.78;4977902;28;20047;-73
2022/11/27 07:08:36;;;;;;;2.38;1.38;;;;;;;3.07;73.47;102846.78;4980046;28;20050;-74
2022/11/27 07:11:05;;;;;;;1.75;1.33;;;;;;;3.07;73.33;102845.09;4982814;28;20152;-74
2022/11/27 07:13:32;;;;;;;2.20;1.10;;;;;;;3.08;73.38;102843.41;4981002;28;20053;-74
2022/11/27 07:16:01;;;;;;;4.78;1.40;;;;;;;3.08;73.35;102846.88;4980938;28;20049;-73
2022/11/27 07:18:28;;;;;;;3.53;1.83;;;;;;;3.09;73.77;102845.16;4982546;28;20078;-74
2022/11/27 07:20:54;;;;;;;3.00;1.70;;;;;;;3.08;73.95;102839.13;4979573;28;20042;-74
2022/11/27 07:23:21;;;;;;;5.03;1.70;;;;;;;2.99;73.46;102822.31;4981834;28;20046;-74
2022/11/27 07:25:48;;;;;;;2.03;1.17;;;;;;;3.06;73.68;102838.16;4979946;28;20108;-73
2022/11/27 07:28:16;;;;;;;2.40;1.45;;;;;;;3.09;73.49;102843.47;4981659;28;20042;-74
2022/11/27 07:30:43;;;;;;;3.30;2.10;;;;;;;3.09;73.33;102840.00;4983315;28;20054;-73
2022/11/27 07:33:10;;;;;;;2.10;1.55;;;;;;;3.10;73.67;102840.09;4979996;28;20456;-73
2022/11/27 07:35:36;;;;;;;2.58;2.20;;;;;;;3.00;73.86;102816.34;4983249;28;20051;-73
2022/11/27 07:38:03;;;;;;;2.38;1.92;;;;;;;3.11;73.85;102838.38;4979050;28;20386;-73
2022/11/27 07:40:30;;;;;;;4.55;2.88;;;;;;;3.10;73.91;102834.91;4977985;28;20054;-73
2022/11/27 07:42:58;;;;;;;4.53;2.00;;;;;;;3.11;73.86;102823.75;4978828;28;20197;-73
2022/11/27 07:45:26;;;;;;;3.65;2.28;;;;;;;3.12;73.98;102834.97;4976851;28;20452;-74
2022/11/27 07:47:53;;;;;;;3.65;2.30;;;;;;;3.12;73.96;102829.81;4973148;28;20076;-74
2022/11/27 07:50:20;;;;;;;4.70;2.38;;;;;;;3.08;73.53;102821.03;4974098;28;20046;-74
2022/11/27 07:52:47;;;;;;;3.28;2.30;;;;;;;3.15;73.66;102827.34;4978114;28;20113;-73
2022/11/27 07:55:13;;;;;;;4.25;1.85;;;;;;;3.14;73.60;102829.06;4977199;28;20460;-75
2022/11/27 07:57:41;;;;;;;3.38;1.92;;;;;;;3.14;73.77;102817.84;4982551;28;20046;-75
2022/11/27 08:00:09;;;;;;;4.80;2.58;;;;;;;3.14;73.60;102815.28;4982012;28;20062;-74
2022/11/27 08:02:37;;;;;;;5.63;2.03;;;;;;;3.16;73.46;102821.41;4976564;28;20046;-75
2022/11/27 08:05:04;;;;;;;5.82;2.13;;;;;;;3.17;74.33;102833.50;4981207;28;20381;-75
2022/11/27 08:07:31;;;;;;;4.80;2.22;;;;;;;3.17;73.99;102830.03;4977044;28;20621;-75
2022/11/27 08:09:58;;;;;;;2.80;1.75;;;;;;;3.17;73.68;102828.31;4980888;28;20054;-74
2022/11/27 08:12:25;;;;;;;3.70;2.33;;;;;;;3.16;73.83;102823.97;4977474;28;20134;-74
2022/11/27 08:14:52;;;;;;;3.63;2.22;;;;;;;3.15;73.79;102819.63;4978864;28;20755;-74
2022/11/27 08:17:19;;;;;;;5.22;2.03;;;;;;;3.17;73.56;102820.56;4976386;28;20125;-74
2022/11/27 08:19:47;;;;;;;5.07;2.50;;;;;;;3.17;74.12;102833.50;4979163;28;20050;-74
2022/11/27 08:22:14;;;;;;;4.20;2.25;;;;;;;3.17;73.99;102823.16;4980103;28;20051;-76
2022/11/27 08:24:41;;;;;;;3.72;2.55;;;;;;;3.15;73.57;102819.63;4980860;28;20703;-75
2022/11/27 08:27:09;;;;;;;3.05;1.85;;;;;;;3.18;73.92;102829.19;4979130;28;20088;-74
2022/11/27 08:29:36;;;;;;;6.15;2.25;;;;;;;3.18;73.49;102826.63;4980570;28;20144;-75
2022/11/27 08:32:03;;;;;;;3.97;2.72;;;;;;;3.18;74.14;102830.06;4980924;28;20104;-75
2022/11/27 08:34:30;;;;;;;3.92;2.15;;;;;;;3.19;74.23;102825.78;4978393;28;20058;-75
2022/11/27 08:36:58;;;;;;;4.10;2.90;;;;;;;3.17;74.00;102823.16;4979595;28;20097;-75
2022/11/27 08:39:25;;;;;;;6.00;3.03;;;;;;;3.13;74.00;102811.81;4977758;28;20050;-75
2022/11/27 08:41:52;;;;;;;6.80;2.75;;;;;;;3.20;74.00;102823.28;4979240;28;20493;-74
2022/11/27 08:44:19;;;;;;;7.63;3.42;;;;;;;3.20;73.94;102828.47;4978686;28;20458;-74
2022/11/27 08:46:46;;;;;;;5.10;3.60;;;;;;;3.22;74.48;102829.41;4976773;28;20055;-74
2022/11/27 08:49:13;;;;;;;4.70;3.35;;;;;;;3.22;74.08;102832.00;4976547;28;20649;-74
2022/11/27 08:51:39;;;;;;;6.25;3.22;;;;;;;3.21;74.26;102824.16;4973974;28;20042;-75
2022/11/27 08:54:07;;;;;;;6.05;3.45;;;;;;;3.25;73.97;102826.09;4972118;28;20054;-74
2022/11/27 08:56:34;;;;;;;5.45;3.55;;;;;;;3.25;74.30;102826.97;4973750;28;20547;-75
2022/11/27 08:59:01;;;;;;;5.55;3.08;;;;;;;3.26;74.05;102827.84;4972386;28;20047;-75
2022/11/27 09:01:30;;;;;;;5.60;3.67;;;;;;;3.25;74.34;102826.97;4976024;28;20054;-75
2022/11/27 09:03:57;;;;;;;7.50;3.42;;;;;;;3.28;74.54;102831.38;4976487;28;20054;-74
2022/11/27 09:06:26;;;;;;;6.07;3.28;;;;;;;3.28;73.87;102832.28;4978704;28;20046;-75
2022/11/27 09:08:56;;;;;;;6.28;3.83;;;;;;;3.27;74.28;102830.50;4977297;28;20423;-74
2022/11/27 09:11:25;;;;;;;5.05;3.22;;;;;;;3.28;74.02;102827.09;4977282;28;20448;-74
2022/11/27 09:13:52;;;;;;;6.95;3.28;;;;;;;3.32;73.79;102838.44;4975037;28;20463;-74
2022/11/27 09:16:20;;;;;;;9.98;4.07;;;;;;;3.27;74.13;102819.28;4979016;28;20043;-74
2022/11/27 09:18:49;;;;;;;3.75;2.83;;;;;;;3.32;74.38;102825.53;4975838;28;20101;-75
2022/11/27 09:21:17;;;;;;;5.85;2.72;;;;;;;3.31;74.01;102818.63;4975466;28;20054;-75
2022/11/27 09:23:44;;;;;;;6.40;3.72;;;;;;;3.31;74.34;102816.91;4976189;28;20790;-75
2022/11/27 09:26:14;;;;;;;7.28;2.95;;;;;;;3.27;74.29;102807.28;4977179;28;20100;-74
2022/11/27 09:28:43;;;;;;;6.10;3.58;;;;;;;3.30;74.07;102817.72;4980402;28;21270;-75
2022/11/27 09:31:12;;;;;;;7.85;3.53;;;;;;;3.35;74.10;102823.97;4974308;28;20484;-74
2022/11/27 09:33:41;;;;;;;7.25;3.58;;;;;;;3.36;74.08;102828.34;4978073;28;20386;-74
2022/11/27 09:36:09;;;;;;;12.90;5.68;;;;;;;3.33;74.15;102817.88;4975110;28;20047;-74
2022/11/27 09:38:37;;;;;;;13.27;4.75;;;;;;;3.38;74.14;102821.50;4976590;28;20956;-75
2022/11/27 09:41:14;;;;;;;7.25;3.75;;;;;;;3.38;74.32;102826.69;4978240;28;20802;-74
2022/11/27 09:43:49;;;;;;;6.43;3.78;;;;;;;3.42;74.20;102835.47;4979467;28;20039;-74
2022/11/27 09:46:23;;;;;;;;;;;;;;;3.44;74.39;102836.41;4976991;28;20046;-73
2022/11/27 09:48:51;;;;;;;12.77;6.90;;;;;;;3.44;74.31;102843.28;4977806;28;20373;-74
2022/11/27 09:51:27;;;;;;;9.50;5.85;;;;;;;3.43;74.42;102846.69;4976725;28;20051;-74
2022/11/27 09:53:59;;;;;;;12.75;5.72;;;;;;;3.46;73.91;102851.97;4972171;28;20637;-74
2022/11/27 09:56:26;;;;;;;9.88;5.53;;;;;;;3.47;74.47;102848.56;4973905;28;20093;-74
2022/11/27 09:58:58;;;;;;;11.43;5.57;;;;;;;3.50;74.66;102851.28;4976761;28;20476;-75
2022/11/27 10:01:28;;;;;;;7.60;4.47;;;;;;;3.51;74.32;102847.91;4974155;28;20504;-74
2022/11/27 10:03:55;;;;;;;6.82;4.18;;;;;;;3.46;74.57;102834.78;4972713;28;20058;-75
2022/11/27 10:06:30;;;;;;;11.73;6.53;;;;;;;3.53;74.49;102848.81;4975350;28;20046;-74
2022/11/27 10:09:15;;;;;;;6.68;4.45;;;;;;;3.56;74.47;102838.66;4974561;28;20050;-75
2022/11/27 10:11:50;;;;;;;5.88;3.70;;;;;;;3.55;74.02;102837.75;4980162;28;20050;-74
2022/11/27 10:14:38;;;;;;;9.90;4.15;;;;;;;3.58;73.90;102837.00;4974783;28;20058;-74
2022/11/27 10:17:12;;;;;;;9.07;4.68;;;;;;;3.60;74.02;102848.28;4978143;28;20487;-75
2022/11/27 10:19:45;;;;;;;11.52;5.55;;;;;;;3.62;74.44;102843.22;4979977;28;20672;-74
2022/11/27 10:22:18;;;;;;;5.60;4.38;;;;;;;3.60;74.26;102833.66;4978092;28;20062;-74
2022/11/27 10:24:56;;;;;;;5.88;4.07;;;;;;;3.65;74.47;102833.00;4975925;28;20683;-74
2022/11/27 10:27:30;;;;;;;6.43;4.18;;;;;;;3.65;74.52;102838.16;4973771;28;20054;-74
2022/11/27 10:30:00;;;;;;;9.38;5.35;;;;;;;3.55;74.17;102811.03;4975434;28;20543;-75
2022/11/27 10:32:30;;;;;;;9.52;5.53;;;;;;;3.68;74.54;102834.00;4979520;28;20327;-73
2022/11/27 10:35:01;;;;;;;5.75;3.33;;;;;;;3.69;73.94;102835.75;4980591;28;20042;-74
2022/11/27 10:37:33;;;;;;;9.07;3.50;;;;;;;3.70;74.51;102832.38;4978251;28;20066;-74
2022/11/27 10:40:06;;;;;;;6.53;3.55;;;;;;;3.72;74.02;102835.00;4976768;28;20047;-74
2022/11/27 10:42:36;;;;;;;9.07;3.78;;;;;;;3.74;74.17;102835.97;4976516;28;20501;-74
2022/11/27 10:45:07;;;;;;;7.25;3.53;;;;;;;3.72;74.18;102816.91;4979138;28;20481;-75
2022/11/27 10:47:34;;;;;;;5.70;3.45;;;;;;;3.76;74.46;102827.47;4969289;28;20050;-74
2022/11/27 10:50:02;;;;;;;6.03;3.25;;;;;;;3.78;74.13;102822.34;4977289;28;20513;-74
2022/11/27 10:52:28;;;;;;;8.73;3.45;;;;;;;3.77;74.60;102807.66;4977109;28;20061;-74
2022/11/27 10:54:59;;;;;;;5.30;4.00;;;;;;;3.81;74.50;102812.13;4977899;28;20055;-75
2022/11/27 10:57:57;;;;;;;5.22;3.70;;;;;;;3.82;74.43;102812.22;4978347;28;20093;-75
2022/11/27 11:00:26;;;;;;;5.93;4.05;;;;;;;3.84;74.30;102817.44;4977032;28;20058;-74
2022/11/27 11:03:00;;;;;;;8.65;3.83;;;;;;;3.81;74.15;102813.03;4973448;28;20058;-74
2022/11/27 11:05:27;;;;;;;5.97;3.47;;;;;;;3.85;74.30;102810.59;4973401;28;20090;-73
2022/11/27 11:08:00;;;;;;;4.68;3.05;;;;;;;3.86;74.56;102815.78;4972285;28;20058;-74
2022/11/27 11:10:30;;;;;;;5.43;3.13;;;;;;;3.89;74.22;102820.22;4973661;28;20042;-74
2022/11/27 11:13:06;;;;;;;6.28;3.33;;;;;;;3.89;74.52;102812.47;4980039;28;20090;-73
2022/11/27 11:15:34;;;;;;;5.53;3.03;;;;;;;3.92;74.36;102812.59;4979535;28;20556;-73
2022/11/27 11:18:01;;;;;;;7.43;3.17;;;;;;;3.91;73.88;102811.72;4981688;28;20045;-74
2022/11/27 11:20:27;;;;;;;8.00;3.83;;;;;;;3.93;74.36;102814.38;4980945;28;20047;-75
2022/11/27 11:22:54;;;;;;;6.45;4.43;;;;;;;3.93;74.45;102816.97;4978151;28;20058;-74
2022/11/27 11:25:21;;;;;;;5.15;3.25;;;;;;;3.91;74.41;102814.28;4981254;28;20047;-74
2022/11/27 11:27:51;;;;;;;7.25;3.42;;;;;;;3.94;74.17;102819.59;4975303;28;20054;-74
2022/11/27 11:30:22;;;;;;;6.05;3.83;;;;;;;3.95;74.18;102823.06;4975679;28;20062;-74
2022/11/27 11:32:51;;;;;;;5.90;3.55;;;;;;;3.97;74.37;102824.00;4979168;28;20101;-74
2022/11/27 11:35:28;;;;;;;5.85;3.42;;;;;;;3.97;74.15;102814.53;4983260;28;20122;-74
2022/11/27 11:37:56;;;;;;;4.97;2.80;;;;;;;3.96;73.96;102809.31;4990046;28;20054;-75
2022/11/27 11:40:28;;;;;;;6.88;3.55;;;;;;;3.97;74.12;102811.09;4982222;28;20098;-75
2022/11/27 11:42:58;;;;;;;7.10;3.67;;;;;;;3.99;74.42;102812.03;4982735;28;20077;-74